Terminal Aerodrome Forecast
Issued by NWS

Home | Current Version | Previous Version | Graphics & Text | Print | Product List | Glossary On
Versions: 1 2 3 4 5 6 7 8 9 10 11 12 13 14 15 16
000
FTUS43 KICT 230520
TAFSLN
TAF
KSLN 230520Z 2306/2406 09007KT P6SM BKN130
     FM230800 12004KT P6SM OVC050
     FM231500 14013KT P6SM OVC040=

USA.gov is the U.S. government's official web portal to all federal, state and local government web resources and services.